Airfield :
LOGIN :

Register | Disclaimer

   EN    FR    IT 

 










Legend :    VFR   Marginal VFR   IFR   Intensive IFR   Very Intensive IFR
Visi :
Ceiling :
>= 8 km
>= 3000ft
5 to 8 km
1000 to 3000 ft
1500m to 5 km
500 to 1000 ft
800 to 1500m
200 to 500 ft
< 800m
< 200 ft
Symbols :   Thunderstorms  Fog  Heavy snow  Heavy precipitations  Wind > 20 kt
SIGMETs :     Misc.  Thunderstorms  Icing  Turbulence  Mountain Waves  Volcanic Ashes







- Airport Elevation : 479 ft
- IATA code : DOL
- Download approach charts


LFRG - Deauville

CURRENT METAR :
  • 220600Z AUTO 26008KT 220V290 3800 RA BR OVC003 12/11 Q1009 TEMPO 2500 +RA

EXPIRED METARs :
  • 220530Z AUTO 26007KT 4600 RA BR OVC003 11/11 Q1010 TEMPO 2500 +RA
  • 220500Z AUTO 26006KT 3500 RA BR OVC005 11/11 Q1010
  • 220430Z AUTO 27007KT 3500 RA BR BKN003/// OVC007/// ///TCU 11/11 Q1011
  • 220400Z AUTO 28011KT 4000 +RA BR OVC004/// ///CB 11/11 Q1011
  • 220330Z AUTO 27010KT 5000 RA BR OVC004/// ///TCU 11/11 Q1011

TAF TAF LFRG
Valid from the 22 at 06:00 until the 22 at 15:00 UTC


220500Z 2206/2215 26012KT 6000 RA BKN012
TEMPO 2206/2212 2500 +RA BKN003
BECMG 2208/2210 36012KT
BECMG 2211/2213 29014KT 9999 NSW BKN020
TEMPO 2212/2215 BKN007
ATIS : +33 2 31 65 65 36
No reported NOTAMs for that airfield.



MET'MAP, your aeronautical weather chart ! - Copyright ORBIFLY December 2007 - Disclaimer

ORBIFLY MET'MAP TEAM :

Programming & Development : Alexandra Zaïnal
Concept & Development : Baudouin d'Aumeries
Co-Development & Prog : Marc-Olivier Méhu
Technical & hardware support : Manuel Goepfert

Contact : metmap@orbifly.com




SOURCES & CREDITS :

   NOAA